createdAt,value
2016-04-09T00:00:46.398Z,0
2016-04-09T00:01:46.589Z,0
2016-04-09T00:02:46.638Z,0
2016-04-09T00:04:46.784Z,0
2016-04-09T00:05:46.364Z,0
2016-04-09T00:06:46.367Z,0
2016-04-09T00:07:46.386Z,0
2016-04-09T00:08:46.404Z,0
2016-04-09T00:10:00.876Z,0
2016-04-09T00:10:47.019Z,0
2016-04-09T00:11:46.397Z,0
2016-04-09T00:12:46.399Z,0
2016-04-09T00:13:46.371Z,0
2016-04-09T00:14:46.405Z,0
2016-04-09T00:15:47.002Z,0
2016-04-09T00:17:46.397Z,0
2016-04-09T00:18:46.368Z,0
2016-04-09T00:19:46.605Z,0
2016-04-09T00:20:46.155Z,0
2016-04-09T00:21:46.377Z,0
2016-04-09T00:23:00.724Z,0
2016-04-09T00:24:00.913Z,0
2016-04-09T00:24:46.635Z,0
2016-04-09T00:25:46.403Z,0
2016-04-09T00:26:46.656Z,0
2016-04-09T00:27:46.580Z,0
2016-04-09T00:28:45.895Z,0
2016-04-09T00:29:46.367Z,0
2016-04-09T00:30:46.369Z,0
2016-04-09T00:31:45.934Z,0
2016-04-09T00:33:46.877Z,0
2016-04-09T00:34:45.958Z,0
2016-04-09T00:36:00.914Z,0
2016-04-09T00:36:46.636Z,0
2016-04-09T00:37:46.389Z,0
2016-04-09T00:38:46.594Z,0
2016-04-09T00:40:00.706Z,0
2016-04-09T00:40:46.427Z,0
2016-04-09T00:42:46.620Z,0
2016-04-09T00:43:46.467Z,0
2016-04-09T00:44:46.861Z,0
2016-04-09T00:45:46.661Z,0
2016-04-09T00:46:46.647Z,0
2016-04-09T00:47:46.509Z,0
2016-04-09T00:49:00.527Z,0
2016-04-09T00:49:46.827Z,0
2016-04-09T00:50:46.611Z,0
2016-04-09T00:51:46.410Z,0
2016-04-09T00:52:46.804Z,0
2016-04-09T00:53:46.603Z,0
2016-04-09T00:55:46.609Z,0
2016-04-09T00:56:46.626Z,0
2016-04-09T00:57:46.427Z,0
2016-04-09T00:58:46.429Z,0
2016-04-09T00:59:46.416Z,0
2016-04-09T01:00:46.419Z,0
2016-04-09T01:01:46.406Z,0
2016-04-09T01:02:46.643Z,0
2016-04-09T01:04:00.520Z,0
2016-04-09T01:04:46.414Z,0
2016-04-09T01:05:46.854Z,0
2016-04-09T01:06:46.872Z,0
2016-04-09T01:07:46.281Z,0
2016-04-09T01:08:46.486Z,0
2016-04-09T01:09:46.411Z,0
2016-04-09T01:10:46.414Z,0
2016-04-09T01:12:00.511Z,0
2016-04-09T01:12:46.420Z,0
2016-04-09T01:13:46.423Z,0
2016-04-09T01:14:46.425Z,0
2016-04-09T01:15:46.819Z,0
2016-04-09T01:16:46.415Z,0
2016-04-09T01:17:45.933Z,0
2016-04-09T01:18:46.467Z,0
2016-04-09T01:19:46.626Z,0
2016-04-09T01:20:46.411Z,0
2016-04-09T01:21:46.819Z,0
2016-04-09T01:22:46.416Z,0
2016-04-09T01:23:46.403Z,0
2016-04-09T01:24:46.421Z,0
2016-04-09T01:26:46.426Z,0
2016-04-09T01:27:46.429Z,0
2016-04-09T01:28:46.291Z,0
2016-04-09T01:29:46.434Z,0
2016-04-09T01:30:46.437Z,0
2016-04-09T01:31:46.861Z,0
2016-04-09T01:32:46.661Z,0
2016-04-09T01:33:46.414Z,0
2016-04-09T01:34:46.417Z,0
2016-04-09T01:35:46.654Z,0
2016-04-09T01:36:46.632Z,0
2016-04-09T01:38:00.509Z,0
2016-04-09T01:38:46.434Z,0
2016-04-09T01:39:46.436Z,0
2016-04-09T01:40:46.610Z,0
2016-04-09T01:41:46.410Z,0
2016-04-09T01:42:46.631Z,0
2016-04-09T01:43:46.478Z,0
2016-04-09T01:44:46.433Z,0
2016-04-09T01:45:46.858Z,0
2016-04-09T01:46:46.423Z,0
2016-04-09T01:47:46.645Z,0
2016-04-09T01:48:46.398Z,0
2016-04-09T01:49:46.417Z,0
2016-04-09T01:50:46.434Z,0
2016-04-09T01:51:47.250Z,0
2016-04-09T01:52:46.642Z,0
2016-04-09T01:54:00.724Z,0
2016-04-09T01:54:46.398Z,0
2016-04-09T01:55:46.604Z,0
2016-04-09T01:56:46.419Z,0
2016-04-09T01:57:46.421Z,0
2016-04-09T01:59:46.411Z,0
2016-04-09T02:00:46.618Z,0
2016-04-09T02:01:46.449Z,0
2016-04-09T02:03:46.626Z,0
2016-04-09T02:04:46.424Z,0
2016-04-09T02:05:46.865Z,0
2016-04-09T02:06:46.415Z,0
2016-04-09T02:07:46.854Z,0
2016-04-09T02:08:46.607Z,0
2016-04-09T02:10:00.516Z,0
2016-04-09T02:10:46.409Z,0
2016-04-09T02:11:46.631Z,0
2016-04-09T02:12:46.431Z,0
2016-04-09T02:13:46.667Z,0
2016-04-09T02:14:46.827Z,0
2016-04-09T02:16:00.767Z,0
2016-04-09T02:16:46.661Z,0
2016-04-09T02:17:46.492Z,0
2016-04-09T02:18:46.650Z,0
2016-04-09T02:19:45.450Z,0
2016-04-09T02:20:46.436Z,0
2016-04-09T02:21:46.642Z,0
2016-04-09T02:22:47.083Z,0
2016-04-09T02:24:00.570Z,0
2016-04-09T02:25:00.933Z,0
2016-04-09T02:25:46.419Z,0
2016-04-09T02:26:46.438Z,0
2016-04-09T02:27:46.612Z,0
2016-04-09T02:28:46.614Z,0
2016-04-09T02:29:46.836Z,0
2016-04-09T02:31:00.760Z,0
2016-04-09T02:31:46.404Z,0
2016-04-09T02:32:46.671Z,0
2016-04-09T02:33:46.456Z,0
2016-04-09T02:34:46.412Z,0
2016-04-09T02:35:46.601Z,0
2016-04-09T02:36:46.432Z,0
2016-04-09T02:37:46.623Z,0
2016-04-09T02:38:46.641Z,0
2016-04-09T02:39:46.629Z,0
2016-04-09T02:40:46.476Z,0
2016-04-09T02:42:00.728Z,0
2016-04-09T02:42:46.402Z,0
2016-04-09T02:43:46.608Z,0
2016-04-09T02:44:46.626Z,0
2016-04-09T02:45:46.410Z,0
2016-04-09T02:46:46.662Z,0
2016-04-09T02:47:46.415Z,0
2016-04-09T02:48:46.387Z,0
2016-04-09T02:49:46.390Z,0
2016-04-09T02:50:46.423Z,0
2016-04-09T02:51:45.911Z,0
2016-04-09T02:52:46.414Z,0
2016-04-09T02:53:46.650Z,0
2016-04-09T02:54:46.809Z,0
2016-04-09T02:55:46.640Z,0
2016-04-09T02:56:46.439Z,0
2016-04-09T02:57:46.411Z,0
2016-04-09T02:58:46.398Z,0
2016-04-09T03:00:00.495Z,0
2016-04-09T03:00:46.638Z,0
2016-04-09T03:01:46.610Z,0
2016-04-09T03:02:46.393Z,0
2016-04-09T03:03:46.630Z,0
2016-04-09T03:05:00.680Z,0
2016-04-09T03:05:46.417Z,0
2016-04-09T03:06:46.638Z,0
2016-04-09T03:07:46.376Z,0
2016-04-09T03:08:46.846Z,0
2016-04-09T03:09:46.396Z,0
2016-04-09T03:10:46.399Z,0
2016-04-09T03:11:46.854Z,0
2016-04-09T03:12:46.404Z,0
2016-04-09T03:14:00.517Z,0
2016-04-09T03:14:46.395Z,0
2016-04-09T03:15:46.382Z,0
2016-04-09T03:16:46.431Z,0
2016-04-09T03:17:46.387Z,0
2016-04-09T03:18:46.592Z,0
2016-04-09T03:19:46.095Z,0
2016-04-09T03:21:46.381Z,0
2016-04-09T03:22:46.400Z,0
2016-04-09T03:23:46.808Z,0
2016-04-09T03:24:46.389Z,0
2016-04-09T03:25:46.392Z,0
2016-04-09T03:26:47.052Z,0
2016-04-09T03:28:01.320Z,0
2016-04-09T03:28:46.416Z,0
2016-04-09T03:29:46.388Z,0
2016-04-09T03:30:46.375Z,0
2016-04-09T03:31:46.580Z,0
2016-04-09T03:32:46.411Z,0
2016-04-09T03:33:46.086Z,0
2016-04-09T03:34:46.416Z,0
2016-04-09T03:35:46.420Z,0
2016-04-09T03:36:46.626Z,0
2016-04-09T03:37:46.441Z,0
2016-04-09T03:39:00.507Z,0
2016-04-09T03:39:46.384Z,0
2016-04-09T03:41:14.793Z,0
2016-04-09T03:41:46.607Z,0
2016-04-09T03:42:46.376Z,0
2016-04-09T03:43:46.363Z,0
2016-04-09T03:44:46.365Z,0
2016-04-09T03:45:46.587Z,0
2016-04-09T03:46:46.370Z,0
2016-04-09T03:47:46.405Z,0
2016-04-09T03:48:46.564Z,0
2016-04-09T03:49:46.364Z,0
2016-04-09T03:50:46.367Z,0
2016-04-09T03:51:46.369Z,0
2016-04-09T03:52:46.372Z,0
2016-04-09T03:53:46.592Z,0
2016-04-09T03:54:46.549Z,0
2016-04-09T03:55:46.364Z,0
2016-04-09T03:56:46.350Z,0
2016-04-09T03:57:46.557Z,0
2016-04-09T03:58:46.355Z,0
2016-04-09T03:59:46.405Z,0
2016-04-09T04:01:00.658Z,0
2016-04-09T04:01:46.177Z,0
2016-04-09T04:02:46.352Z,0
2016-04-09T04:03:46.605Z,0
2016-04-09T04:04:46.544Z,0
2016-04-09T04:05:46.563Z,0
2016-04-09T04:06:46.550Z,0
2016-04-09T04:07:46.552Z,0
2016-04-09T04:08:46.774Z,0
2016-04-09T04:09:46.979Z,0
2016-04-09T04:10:46.357Z,0
2016-04-09T04:11:46.563Z,0
2016-04-09T04:12:46.738Z,0
2016-04-09T04:13:45.897Z,0
2016-04-09T04:14:46.774Z,0
2016-04-09T04:15:46.340Z,0
2016-04-09T04:16:46.342Z,0
2016-04-09T04:17:46.407Z,0
2016-04-09T04:18:46.582Z,0
2016-04-09T04:19:46.350Z,5
2016-04-09T04:20:46.587Z,5
2016-04-09T04:21:46.355Z,5
2016-04-09T04:22:46.327Z,5
2016-04-09T04:23:46.752Z,5
2016-04-09T04:24:46.347Z,5
2016-04-09T04:25:46.758Z,5
2016-04-09T04:26:46.322Z,5
2016-04-09T04:27:46.747Z,5
2016-04-09T04:28:46.531Z,10
2016-04-09T04:29:46.769Z,10
2016-04-09T04:30:46.567Z,10
2016-04-09T04:31:46.320Z,10
2016-04-09T04:32:46.338Z,10
2016-04-09T04:33:46.544Z,10
2016-04-09T04:35:00.843Z,10
2016-04-09T04:37:46.507Z,15
2016-04-09T04:39:46.341Z,15
2016-04-09T04:40:46.329Z,20
2016-04-09T04:41:46.332Z,20
2016-04-09T04:43:00.615Z,20
2016-04-09T04:44:00.431Z,20
2016-04-09T04:45:00.417Z,25
2016-04-09T04:45:46.592Z,25
2016-04-09T04:46:46.532Z,25
2016-04-09T04:47:46.534Z,25
2016-04-09T04:48:46.287Z,30
2016-04-09T04:49:46.322Z,30
2016-04-09T04:50:46.293Z,30
2016-04-09T04:51:46.312Z,35
2016-04-09T04:52:46.345Z,35
2016-04-09T04:53:46.333Z,35
2016-04-09T04:54:46.319Z,40
2016-04-09T04:56:00.416Z,40
2016-04-09T04:56:46.341Z,40
2016-04-09T04:57:46.296Z,45
2016-04-09T04:58:46.299Z,45
2016-04-09T04:59:46.036Z,45
2016-04-09T05:00:46.319Z,50
2016-04-09T05:01:46.308Z,50
2016-04-09T05:02:46.341Z,50
2016-04-09T05:03:46.344Z,55
2016-04-09T05:04:46.316Z,55
2016-04-09T05:05:46.505Z,55
2016-04-09T05:06:46.711Z,60
2016-04-09T05:08:01.057Z,60
2016-04-09T05:08:46.294Z,65
2016-04-09T05:09:45.813Z,65
2016-04-09T05:10:46.299Z,65
2016-04-09T05:11:46.302Z,65
2016-04-09T05:12:46.336Z,70
2016-04-09T05:13:46.307Z,70
2016-04-09T05:14:46.295Z,70
2016-04-09T05:15:46.485Z,70
2016-04-09T05:16:46.285Z,70
2016-04-09T05:17:46.178Z,75
2016-04-09T05:18:46.321Z,75
2016-04-09T05:19:46.527Z,80
2016-04-09T05:20:46.311Z,80
2016-04-09T05:21:46.720Z,85
2016-04-09T05:22:46.895Z,85
2016-04-09T05:23:46.272Z,90
2016-04-09T05:24:46.932Z,90
2016-04-09T05:25:46.762Z,95
2016-04-09T05:26:46.265Z,95
2016-04-09T05:27:46.300Z,100
2016-04-09T05:28:46.114Z,100
2016-04-09T05:30:46.010Z,105
2016-04-09T05:31:46.263Z,105
2016-04-09T05:32:46.484Z,105
2016-04-09T05:33:46.299Z,110
2016-04-09T05:34:47.318Z,110
2016-04-09T05:35:46.288Z,115
2016-04-09T05:36:46.307Z,115
2016-04-09T05:37:45.810Z,120
2016-04-09T05:38:46.282Z,120
2016-04-09T05:40:00.800Z,125
2016-04-09T05:40:46.709Z,125
2016-04-09T05:41:46.258Z,125
2016-04-09T05:42:46.479Z,130
2016-04-09T05:43:46.263Z,130
2016-04-09T05:44:46.266Z,130
2016-04-09T05:45:46.268Z,130
2016-04-09T05:46:46.490Z,130
2016-04-09T05:47:46.461Z,135
2016-04-09T05:48:46.261Z,135
2016-04-09T05:49:46.264Z,135
2016-04-09T05:50:46.267Z,140
2016-04-09T05:51:46.675Z,140
2016-04-09T05:52:46.475Z,145
2016-04-09T05:53:46.275Z,145
2016-04-09T05:55:00.575Z,145
2016-04-09T05:55:46.264Z,150
2016-04-09T05:56:46.456Z,150
2016-04-09T05:57:46.301Z,150
2016-04-09T05:58:46.476Z,155
2016-04-09T05:59:46.260Z,155
2016-04-09T06:00:46.325Z,155
2016-04-09T06:01:46.484Z,160
2016-04-09T06:02:46.455Z,160
2016-04-09T06:03:46.552Z,165
2016-04-09T06:04:46.257Z,165
2016-04-09T06:05:46.729Z,170
2016-04-09T06:06:46.325Z,170
2016-04-09T06:07:46.485Z,175
2016-04-09T06:08:46.300Z,175
2016-04-09T06:09:46.287Z,180
2016-04-09T06:10:46.290Z,180
2016-04-09T06:11:46.323Z,185
2016-04-09T06:12:45.795Z,190
2016-04-09T06:13:46.688Z,190
2016-04-09T06:14:46.268Z,190
2016-04-09T06:15:46.304Z,195
2016-04-09T06:16:46.493Z,195
2016-04-09T06:17:46.465Z,195
2016-04-09T06:18:46.827Z,195
2016-04-09T06:19:46.470Z,200
2016-04-09T06:20:45.706Z,200
2016-04-09T06:21:46.678Z,205
2016-04-09T06:23:01.072Z,210
2016-04-09T06:23:46.339Z,210
2016-04-09T06:24:46.702Z,210
2016-04-09T06:25:46.299Z,215
2016-04-09T06:26:46.473Z,215
2016-04-09T06:27:46.304Z,215
2016-04-09T06:28:46.275Z,215
2016-04-09T06:29:46.481Z,220
2016-04-09T06:30:46.297Z,220
2016-04-09T06:32:00.611Z,225
2016-04-09T06:33:00.599Z,225
2016-04-09T06:33:46.444Z,225
2016-04-09T06:34:46.292Z,230
2016-04-09T06:35:46.497Z,230
2016-04-09T06:36:46.922Z,235
2016-04-09T06:37:46.284Z,240
2016-04-09T06:38:46.286Z,240
2016-04-09T06:40:00.430Z,240
2016-04-09T06:40:46.338Z,240
2016-04-09T06:41:46.733Z,245
2016-04-09T06:42:46.329Z,245
2016-04-09T06:43:46.566Z,250
2016-04-09T06:44:45.849Z,255
2016-04-09T06:45:46.290Z,255
2016-04-09T06:46:46.511Z,255
2016-04-09T06:47:46.310Z,255
2016-04-09T06:48:46.798Z,255
2016-04-09T06:49:46.504Z,260
2016-04-09T06:50:46.319Z,265
2016-04-09T06:52:00.446Z,265
2016-04-09T06:53:00.418Z,270
2016-04-09T06:53:46.339Z,270
2016-04-09T06:54:46.838Z,275
2016-04-09T06:55:46.464Z,275
2016-04-09T06:56:46.511Z,280
2016-04-09T06:57:46.558Z,280
2016-04-09T06:58:46.750Z,285
2016-04-09T06:59:46.612Z,285
2016-04-09T07:00:46.631Z,290
2016-04-09T07:01:46.633Z,290
2016-04-09T07:02:47.262Z,295
2016-04-09T07:03:46.693Z,300
2016-04-09T07:05:00.748Z,300
2016-04-09T07:05:47.115Z,305
2016-04-09T07:07:00.749Z,305
2016-04-09T07:07:46.757Z,310
2016-04-09T07:08:47.090Z,310
2016-04-09T07:10:00.361Z,315
2016-04-09T07:10:46.678Z,315
2016-04-09T07:11:46.886Z,320
2016-04-09T07:12:46.719Z,320
2016-04-09T07:13:46.738Z,320
2016-04-09T07:14:47.102Z,325
2016-04-09T07:16:00.824Z,325
2016-04-09T07:16:47.125Z,325
2016-04-09T07:17:46.737Z,330
2016-04-09T07:18:46.944Z,330
2016-04-09T07:19:46.931Z,330
2016-04-09T07:20:46.761Z,330
2016-04-09T07:21:46.936Z,335
2016-04-09T07:22:46.938Z,335
2016-04-09T07:23:46.957Z,335
2016-04-09T07:24:46.740Z,340
2016-04-09T07:26:01.196Z,340
2016-04-09T07:26:46.840Z,340
2016-04-09T07:27:47.155Z,345
2016-04-09T07:29:01.252Z,345
2016-04-09T07:29:46.801Z,350
2016-04-09T07:31:00.866Z,350
2016-04-09T07:32:01.071Z,355
2016-04-09T07:32:46.809Z,355
2016-04-09T07:33:46.843Z,360
2016-04-09T07:34:47.220Z,365
2016-04-09T07:35:46.489Z,370
2016-04-09T07:36:46.757Z,370
2016-04-09T07:37:46.790Z,375
2016-04-09T07:38:46.856Z,380
2016-04-09T07:39:46.984Z,380
2016-04-09T07:40:46.331Z,385
2016-04-09T07:41:46.786Z,385
2016-04-09T07:42:47.195Z,385
2016-04-09T07:43:46.823Z,385
2016-04-09T07:45:00.889Z,390
2016-04-09T07:45:46.798Z,390
2016-04-09T07:46:46.862Z,395
2016-04-09T07:47:46.787Z,390
2016-04-09T07:48:46.852Z,390
2016-04-09T07:49:47.073Z,390
2016-04-09T07:50:46.826Z,390
2016-04-09T07:51:46.813Z,390
2016-04-09T07:52:46.816Z,390
2016-04-09T07:53:46.880Z,390
2016-04-09T07:54:46.852Z,390
2016-04-09T07:55:46.839Z,390
2016-04-09T07:56:46.842Z,395
2016-04-09T07:57:47.063Z,400
2016-04-09T07:58:46.894Z,400
2016-04-09T07:59:46.413Z,405
2016-04-09T08:01:01.087Z,405
2016-04-09T08:01:47.277Z,405
2016-04-09T08:03:00.967Z,405
2016-04-09T08:03:46.907Z,410
2016-04-09T08:04:47.082Z,415
2016-04-09T08:05:46.913Z,410
2016-04-09T08:06:46.932Z,410
2016-04-09T08:07:47.325Z,415
2016-04-09T08:08:46.921Z,415
2016-04-09T08:10:47.130Z,415
2016-04-09T08:11:47.132Z,415
2016-04-09T08:13:01.026Z,420
2016-04-09T08:13:46.904Z,425
2016-04-09T08:14:46.953Z,425
2016-04-09T08:16:46.865Z,435
2016-04-09T08:17:46.773Z,435
2016-04-09T08:18:47.042Z,435
2016-04-09T08:19:46.998Z,435
2016-04-09T08:20:46.953Z,440
2016-04-09T08:21:47.206Z,435
2016-04-09T08:22:46.959Z,435
2016-04-09T08:23:47.165Z,435
2016-04-09T08:25:01.308Z,440
2016-04-09T08:25:46.967Z,440
2016-04-09T08:26:46.970Z,445
2016-04-09T08:27:47.238Z,450
2016-04-09T08:28:46.850Z,445
2016-04-09T08:30:01.102Z,450
2016-04-09T08:30:46.996Z,450
2016-04-09T08:31:46.999Z,450
2016-04-09T08:32:47.252Z,450
2016-04-09T08:33:47.020Z,450
2016-04-09T08:34:47.007Z,455
2016-04-09T08:35:47.525Z,450
2016-04-09T08:38:01.187Z,450
2016-04-09T08:38:47.284Z,450
2016-04-09T08:39:47.442Z,455
2016-04-09T08:40:47.476Z,455
2016-04-09T08:41:47.151Z,455
2016-04-09T08:42:47.107Z,465
2016-04-09T08:43:47.297Z,460
2016-04-09T08:44:47.128Z,465
2016-04-09T08:45:46.521Z,465
2016-04-09T08:46:47.164Z,470
2016-04-09T08:47:47.104Z,465
2016-04-09T08:48:47.092Z,465
2016-04-09T08:49:46.829Z,465
2016-04-09T08:50:47.331Z,470
2016-04-09T08:51:47.162Z,470
2016-04-09T08:53:01.243Z,475
2016-04-09T08:53:46.980Z,475
2016-04-09T08:54:47.545Z,480
2016-04-09T08:55:47.189Z,480
2016-04-09T08:56:47.160Z,485
2016-04-09T08:57:47.366Z,490
2016-04-09T08:58:47.181Z,495
2016-04-09T08:59:47.418Z,495
2016-04-09T09:00:47.185Z,495
2016-04-09T09:01:47.189Z,495
2016-04-09T09:02:47.207Z,495
2016-04-09T09:03:47.101Z,500
2016-04-09T09:04:46.447Z,500
2016-04-09T09:05:47.216Z,500
2016-04-09T09:06:47.437Z,505
2016-04-09T09:07:46.768Z,510
2016-04-09T09:08:47.427Z,510
2016-04-09T09:10:01.727Z,510
2016-04-09T09:11:01.558Z,510
2016-04-09T09:12:01.764Z,510
2016-04-09T09:12:47.454Z,510
2016-04-09T09:13:47.035Z,515
2016-04-09T09:14:47.663Z,515
2016-04-09T09:15:47.290Z,515
2016-04-09T09:16:47.340Z,515
2016-04-09T09:17:47.310Z,515
2016-04-09T09:18:47.548Z,515
2016-04-09T09:19:47.410Z,520
2016-04-09T09:20:47.600Z,520
2016-04-09T09:22:01.618Z,520
2016-04-09T09:22:47.559Z,520
2016-04-09T09:23:47.327Z,520
2016-04-09T09:24:47.392Z,520
2016-04-09T09:25:47.582Z,520
2016-04-09T09:26:47.585Z,520
2016-04-09T09:27:47.994Z,520
2016-04-09T09:28:47.387Z,520
2016-04-09T09:29:47.625Z,525
2016-04-09T09:30:47.800Z,530
2016-04-09T09:31:47.489Z,530
2016-04-09T09:33:16.023Z,530
2016-04-09T09:33:47.651Z,530
2016-04-09T09:35:01.935Z,535
2016-04-09T09:35:47.844Z,530
2016-04-09T09:36:47.878Z,540
2016-04-09T09:37:47.630Z,535
2016-04-09T09:38:47.852Z,540
2016-04-09T09:39:47.449Z,540
2016-04-09T09:40:47.701Z,545
2016-04-09T09:41:47.454Z,545
2016-04-09T09:43:01.769Z,550
2016-04-09T09:43:47.459Z,550
2016-04-09T09:44:47.477Z,550
2016-04-09T09:45:48.090Z,545
2016-04-09T09:46:47.952Z,545
2016-04-09T09:47:47.532Z,545
2016-04-09T09:48:47.973Z,545
2016-04-09T09:49:48.183Z,545
2016-04-09T09:50:47.529Z,545
2016-04-09T09:51:47.563Z,545
2016-04-09T09:52:47.671Z,550
2016-04-09T09:53:47.549Z,555
2016-04-09T09:54:47.536Z,550
2016-04-09T09:57:01.855Z,550
2016-04-09T09:57:47.607Z,555
2016-04-09T09:58:47.579Z,550
2016-04-09T09:59:47.612Z,555
2016-04-09T10:01:01.585Z,560
2016-04-09T10:02:02.025Z,565
2016-04-09T10:02:47.856Z,565
2016-04-09T10:03:47.687Z,570
2016-04-09T10:05:01.908Z,570
2016-04-09T10:05:47.645Z,570
2016-04-09T10:06:47.663Z,570
2016-04-09T10:07:47.651Z,570
2016-04-09T10:08:47.638Z,570
2016-04-09T10:09:47.688Z,570
2016-04-09T10:10:47.675Z,570
2016-04-09T10:11:48.286Z,575
2016-04-09T10:12:47.695Z,570
2016-04-09T10:13:48.135Z,570
2016-04-09T10:15:01.827Z,570
2016-04-09T10:15:47.717Z,570
2016-04-09T10:16:47.751Z,570
2016-04-09T10:17:47.596Z,575
2016-04-09T10:18:47.944Z,580
2016-04-09T10:20:02.340Z,585
2016-04-09T10:20:47.965Z,585
2016-04-09T10:21:47.811Z,590
2016-04-09T10:22:48.673Z,590
2016-04-09T10:23:47.770Z,595
2016-04-09T10:24:47.506Z,595
2016-04-09T10:25:47.978Z,590
2016-04-09T10:26:47.824Z,590
2016-04-09T10:28:48.049Z,585
2016-04-09T10:29:47.864Z,585
2016-04-09T10:30:47.928Z,580
2016-04-09T10:31:47.853Z,580
2016-04-09T10:32:48.247Z,575
2016-04-09T10:33:48.093Z,575
2016-04-09T10:34:47.877Z,575
2016-04-09T10:35:48.286Z,570
2016-04-09T10:36:47.883Z,570
2016-04-09T10:37:48.901Z,575
2016-04-09T10:38:47.904Z,580
2016-04-09T10:39:47.906Z,585
2016-04-09T10:40:47.768Z,590
2016-04-09T10:41:47.428Z,590
2016-04-09T10:42:47.180Z,595
2016-04-09T10:43:47.949Z,600
2016-04-09T10:45:02.079Z,605
2016-04-09T10:45:47.969Z,615
2016-04-09T10:46:47.972Z,610
2016-04-09T10:47:47.974Z,610
2016-04-09T10:48:47.977Z,610
2016-04-09T10:49:47.996Z,615
2016-04-09T10:50:47.983Z,615
2016-04-09T10:52:08.223Z,620
2016-04-09T10:53:02.334Z,615
2016-04-09T10:53:48.053Z,615
2016-04-09T10:54:48.040Z,620
2016-04-09T10:55:48.059Z,615
2016-04-09T10:56:48.484Z,615
2016-04-09T10:57:47.940Z,620
2016-04-09T10:58:48.520Z,615
2016-04-09T10:59:48.803Z,615
2016-04-09T11:00:48.759Z,615
2016-04-09T11:02:03.031Z,615
2016-04-09T11:02:48.125Z,615
2016-04-09T11:03:48.409Z,615
2016-04-09T11:04:48.474Z,610
2016-04-09T11:05:48.133Z,605
2016-04-09T11:06:48.166Z,600
2016-04-09T11:07:47.653Z,595
2016-04-09T11:08:48.156Z,595
2016-04-09T11:09:48.503Z,595
2016-04-09T11:10:48.161Z,595
2016-04-09T11:11:48.181Z,595
2016-04-09T11:12:48.635Z,595
2016-04-09T11:13:48.654Z,595
2016-04-09T11:14:48.203Z,595
2016-04-09T11:15:48.441Z,595
2016-04-09T11:16:49.100Z,595
2016-04-09T11:17:48.446Z,600
2016-04-09T11:18:48.652Z,610
2016-04-09T11:19:47.795Z,610
2016-04-09T11:20:48.454Z,615
2016-04-09T11:21:48.457Z,625
2016-04-09T11:22:48.491Z,635
2016-04-09T11:23:48.634Z,645
2016-04-09T11:24:48.684Z,655
2016-04-09T11:25:48.280Z,655
2016-04-09T11:26:48.940Z,655
2016-04-09T11:28:02.898Z,650
2016-04-09T11:29:02.666Z,650
2016-04-09T11:29:48.369Z,645
2016-04-09T11:30:48.371Z,640
2016-04-09T11:31:48.343Z,640
2016-04-09T11:32:49.018Z,635
2016-04-09T11:34:02.711Z,630
2016-04-09T11:34:48.586Z,625
2016-04-09T11:35:48.384Z,620
2016-04-09T11:36:48.763Z,610
2016-04-09T11:38:02.533Z,595
2016-04-09T11:38:48.627Z,590
2016-04-09T11:39:48.833Z,585
2016-04-09T11:40:48.617Z,585
2016-04-09T11:41:48.838Z,580
2016-04-09T11:42:48.435Z,580
2016-04-09T11:43:48.453Z,580
2016-04-09T11:44:48.675Z,590
2016-04-09T11:45:48.474Z,595
2016-04-09T11:46:48.883Z,595
2016-04-09T11:47:49.949Z,610
2016-04-09T11:49:48.938Z,620
2016-04-09T11:50:48.519Z,625
2016-04-09T11:51:48.490Z,630
2016-04-09T11:52:48.540Z,635
2016-04-09T11:53:48.855Z,650
2016-04-09T11:54:48.717Z,665
2016-04-09T11:55:48.813Z,660
2016-04-09T11:57:02.897Z,655
2016-04-09T11:57:48.631Z,655
2016-04-09T11:58:49.040Z,650
2016-04-09T12:00:02.906Z,635
2016-04-09T12:01:49.001Z,635
2016-04-09T12:03:02.757Z,615
2016-04-09T12:03:48.648Z,600
2016-04-09T12:04:48.634Z,595
2016-04-09T12:06:02.765Z,580
2016-04-09T12:06:48.687Z,580
2016-04-09T12:07:48.705Z,560
2016-04-09T12:08:48.911Z,550
2016-04-09T12:09:48.726Z,535
2016-04-09T12:10:48.713Z,530
2016-04-09T12:11:48.950Z,530
2016-04-09T12:12:48.734Z,520
2016-04-09T12:13:48.940Z,520
2016-04-09T12:14:48.724Z,525
2016-04-09T12:15:48.742Z,535
2016-04-09T12:16:48.745Z,550
2016-04-09T12:17:49.201Z,560
2016-04-09T12:19:02.863Z,560
2016-04-09T12:19:49.113Z,570
2016-04-09T12:20:48.802Z,580
2016-04-09T12:21:49.040Z,590
2016-04-09T12:22:49.011Z,600
2016-04-09T12:23:49.013Z,610
2016-04-09T12:24:49.235Z,610
2016-04-09T12:25:49.035Z,605
2016-04-09T12:26:49.256Z,610
2016-04-09T12:27:49.056Z,620
2016-04-09T12:28:49.059Z,625
2016-04-09T12:29:48.921Z,605
2016-04-09T12:30:49.079Z,585
2016-04-09T12:31:49.098Z,555
2016-04-09T12:32:48.898Z,535
2016-04-09T12:33:49.135Z,535
2016-04-09T12:34:48.857Z,555
2016-04-09T12:36:03.237Z,550
2016-04-09T12:36:49.362Z,555
2016-04-09T12:37:48.942Z,565
2016-04-09T12:39:03.261Z,550
2016-04-09T12:40:03.310Z,540
2016-04-09T12:40:49.045Z,535
2016-04-09T12:41:49.219Z,530
2016-04-09T12:42:49.049Z,515
2016-04-09T12:43:49.255Z,510
2016-04-09T12:45:03.527Z,500
2016-04-09T12:45:49.230Z,495
2016-04-09T12:46:49.295Z,495
2016-04-09T12:47:49.048Z,500
2016-04-09T12:48:49.097Z,505
2016-04-09T12:49:49.427Z,505
2016-04-09T12:50:49.477Z,515
2016-04-09T12:51:49.683Z,545
2016-04-09T12:52:49.889Z,555
2016-04-09T12:54:49.130Z,535
2016-04-09T12:55:49.350Z,515
2016-04-09T12:57:49.168Z,495
2016-04-09T12:58:49.374Z,485
2016-04-09T12:59:49.393Z,485
2016-04-09T13:00:48.707Z,495
2016-04-09T13:01:49.398Z,505
2016-04-09T13:02:49.244Z,510
2016-04-09T13:03:49.215Z,520
2016-04-09T13:04:49.671Z,535
2016-04-09T13:05:49.471Z,555
2016-04-09T13:06:49.630Z,580
2016-04-09T13:08:03.385Z,570
2016-04-09T13:08:49.432Z,575
2016-04-09T13:09:49.247Z,570
2016-04-09T13:10:49.265Z,565
2016-04-09T13:11:49.518Z,555
2016-04-09T13:12:49.287Z,550
2016-04-09T13:14:03.605Z,545
2016-04-09T13:15:17.748Z,535
2016-04-09T13:15:49.623Z,535
2016-04-09T13:17:03.706Z,535
2016-04-09T13:17:49.425Z,540
2016-04-09T13:18:49.349Z,545
2016-04-09T13:19:49.383Z,545
2016-04-09T13:20:49.386Z,550
2016-04-09T13:21:49.795Z,545
2016-04-09T13:22:49.377Z,545
2016-04-09T13:23:49.410Z,550
2016-04-09T13:24:49.444Z,555
2016-04-09T13:25:49.635Z,550
2016-04-09T13:26:48.933Z,550
2016-04-09T13:27:49.874Z,550
2016-04-09T13:28:49.657Z,550
2016-04-09T13:29:49.442Z,550
2016-04-09T13:30:49.694Z,545
2016-04-09T13:31:49.729Z,540
2016-04-09T13:32:49.496Z,550
2016-04-09T13:34:49.877Z,570
2016-04-09T13:35:49.505Z,560
2016-04-09T13:36:49.524Z,560
2016-04-09T13:37:49.400Z,560
2016-04-09T13:38:49.528Z,565
2016-04-09T13:39:49.562Z,560
2016-04-09T13:40:49.596Z,555
2016-04-09T13:42:03.883Z,550
2016-04-09T13:43:03.698Z,545
2016-04-09T13:43:49.167Z,540
2016-04-09T13:44:49.606Z,530
2016-04-09T13:45:49.610Z,520
2016-04-09T13:46:49.144Z,515
2016-04-09T13:47:49.678Z,510
2016-04-09T13:48:50.040Z,505
2016-04-09T13:49:49.870Z,495
2016-04-09T13:51:49.860Z,490
2016-04-09T13:53:03.756Z,480
2016-04-09T13:53:49.928Z,480
2016-04-09T13:54:49.681Z,475
2016-04-09T13:55:50.558Z,475
2016-04-09T13:57:49.720Z,475
2016-04-09T13:58:49.723Z,475
2016-04-09T13:59:53.569Z,475
2016-04-09T14:00:50.384Z,475
2016-04-09T14:01:49.763Z,470
2016-04-09T14:02:49.999Z,470
2016-04-09T14:03:49.799Z,475
2016-04-09T14:04:49.833Z,470
2016-04-09T14:05:50.007Z,470
2016-04-09T14:06:49.995Z,470
2016-04-09T14:07:49.840Z,470
2016-04-09T14:08:50.062Z,465
2016-04-09T14:09:49.612Z,455
2016-04-09T14:10:50.270Z,450
2016-04-09T14:11:50.086Z,445
2016-04-09T14:12:50.056Z,445
2016-04-09T14:14:03.969Z,440
2016-04-09T14:14:49.734Z,440
2016-04-09T14:15:49.909Z,435
2016-04-09T14:16:49.928Z,435
2016-04-09T14:17:49.914Z,430
2016-04-09T14:18:50.105Z,430
2016-04-09T14:20:04.235Z,430
2016-04-09T14:20:49.922Z,430
2016-04-09T14:21:49.956Z,430
2016-04-09T14:22:50.428Z,430
2016-04-09T14:23:49.946Z,430
2016-04-09T14:24:50.184Z,430
2016-04-09T14:25:49.514Z,430
2016-04-09T14:26:50.002Z,435
2016-04-09T14:28:04.350Z,430
2016-04-09T14:28:50.007Z,430
2016-04-09T14:29:50.010Z,430
2016-04-09T14:30:50.263Z,430